Time;durP1;ratioP1;P1;durP2;ratioP2;P2;SDS_P1;SDS_P2;PMS_P1;PMS_P2;Temp;Humidity;BMP_temperature;BMP_pressure;BME280_temperature;BME280_humidity;BME280_pressure;Samples;Min_cycle;Max_cycle;Signal;HPM_P1;HPM_P2
2023/05/03 00:02:03;;;;;;;6.90;5.20;;;8.20;1.00;;;;;;5053934;28;20169;-66
2023/05/03 00:04:30;;;;;;;10.97;5.27;;;8.10;1.00;;;;;;5053804;28;20181;-66
2023/05/03 00:06:56;;;;;;;13.17;5.27;;;8.20;1.00;;;;;;5053452;28;20212;-66
2023/05/03 00:09:22;;;;;;;8.60;5.40;;;8.20;1.00;;;;;;5053495;28;20172;-65
2023/05/03 00:11:48;;;;;;;9.87;5.43;;;8.10;1.00;;;;;;5052468;28;20177;-66
2023/05/03 00:14:14;;;;;;;10.00;5.20;;;8.10;1.00;;;;;;5053077;28;20197;-66
2023/05/03 00:16:39;;;;;;;8.73;5.37;;;8.10;1.00;;;;;;5053479;28;20207;-66
2023/05/03 00:19:05;;;;;;;7.33;5.03;;;8.00;1.00;;;;;;5051941;28;20220;-65
2023/05/03 00:21:31;;;;;;;11.13;5.17;;;8.00;1.00;;;;;;5053536;28;20174;-67
2023/05/03 00:23:56;;;;;;;11.73;5.57;;;8.00;1.00;;;;;;5053243;28;20261;-65
2023/05/03 00:26:22;;;;;;;10.70;5.23;;;7.90;1.00;;;;;;5053032;28;20176;-66
2023/05/03 00:28:47;;;;;;;6.13;4.87;;;7.90;1.00;;;;;;5053238;28;20657;-66
2023/05/03 00:31:13;;;;;;;6.90;6.03;;;7.90;1.00;;;;;;5052554;28;20228;-66
2023/05/03 00:33:39;;;;;;;7.40;5.20;;;7.80;1.00;;;;;;5035330;28;20200;-66
2023/05/03 00:36:09;;;;;;;10.50;5.50;;;7.70;1.00;;;;;;5053168;28;20171;-66
2023/05/03 00:38:36;;;;;;;7.23;5.43;;;7.70;1.00;;;;;;5053091;28;20189;-66
2023/05/03 00:41:02;;;;;;;8.87;5.43;;;7.70;1.90;;;;;;5052911;28;20204;-66
2023/05/03 00:43:28;;;;;;;8.20;5.40;;;7.60;4.10;;;;;;5053251;28;20169;-66
2023/05/03 00:45:54;;;;;;;9.40;5.10;;;7.60;7.90;;;;;;5053166;28;20708;-65
2023/05/03 00:48:20;;;;;;;7.97;5.30;;;7.50;7.70;;;;;;5052998;28;20240;-65
2023/05/03 00:50:46;;;;;;;8.43;5.23;;;7.50;7.30;;;;;;5035355;28;20208;-65
2023/05/03 00:53:13;;;;;;;9.93;5.27;;;7.50;11.20;;;;;;5053057;28;20169;-66
2023/05/03 00:55:40;;;;;;;7.47;5.63;;;7.40;13.50;;;;;;5052733;28;20235;-65
2023/05/03 00:58:05;;;;;;;12.37;5.03;;;7.40;16.20;;;;;;5053057;28;20184;-67
2023/05/03 01:00:31;;;;;;;9.03;5.60;;;7.30;17.40;;;;;;5053161;28;20165;-66
2023/05/03 01:02:57;;;;;;;7.10;5.40;;;7.30;18.60;;;;;;5053280;28;20169;-66
2023/05/03 01:05:27;;;;;;;9.50;5.23;;;7.30;22.00;;;;;;5052850;28;20185;-66
2023/05/03 01:08:10;;;;;;;6.87;5.27;;;7.30;19.50;;;;;;5052913;28;20308;-65
2023/05/03 01:10:54;;;;;;;12.60;5.50;;;7.30;23.00;;;;;;5034692;28;20172;-65
2023/05/03 01:13:37;;;;;;;9.63;5.57;;;7.20;24.80;;;;;;5052784;28;20169;-66
2023/05/03 01:16:16;;;;;;;7.33;5.60;;;7.20;26.60;;;;;;5052748;28;20649;-65
2023/05/03 01:18:47;;;;;;;9.07;5.53;;;7.10;27.00;;;;;;5052133;28;20229;-66
2023/05/03 01:21:18;;;;;;;12.73;5.57;;;7.10;29.20;;;;;;5052961;28;20170;-66
2023/05/03 01:24:06;;;;;;;9.40;5.77;;;7.00;30.00;;;;;;5051009;28;20287;-65
2023/05/03 01:26:32;;;;;;;7.13;5.70;;;7.00;29.60;;;;;;5051122;28;20633;-66
2023/05/03 01:28:59;;;;;;;8.53;5.30;;;7.00;31.70;;;;;;5052715;28;20232;-66
2023/05/03 01:31:38;;;;;;;10.90;5.20;;;7.00;33.40;;;;;;5052663;28;20177;-66
2023/05/03 01:34:15;;;;;;;8.87;5.63;;;7.00;34.70;;;;;;5051400;28;20702;-66
2023/05/03 01:36:44;;;;;;;9.43;5.60;;;6.90;36.10;;;;;;5052522;28;20260;-66
2023/05/03 01:39:25;;;;;;;11.60;5.87;;;6.90;38.50;;;;;;5052387;28;20177;-65
2023/05/03 01:41:52;;;;;;;6.10;4.93;;;6.90;39.00;;;;;;5052635;28;20201;-66
2023/05/03 01:44:20;;;;;;;9.90;5.47;;;6.90;40.00;;;;;;5056324;28;20208;-66
2023/05/03 01:46:46;;;;;;;8.50;5.73;;;6.80;40.50;;;;;;5038461;28;20169;-64
2023/05/03 01:49:12;;;;;;;6.67;5.03;;;6.80;42.50;;;;;;5056253;28;20177;-66
2023/05/03 01:51:38;;;;;;;10.77;5.13;;;6.80;42.10;;;;;;5056182;28;20259;-66
2023/05/03 01:54:03;;;;;;;5.57;4.87;;;6.80;41.00;;;;;;5055717;28;20532;-66
2023/05/03 01:56:30;;;;;;;6.53;4.97;;;6.80;42.20;;;;;;5056260;28;20175;-65
2023/05/03 01:58:56;;;;;;;9.50;6.43;;;6.70;43.90;;;;;;5056105;28;20169;-66
2023/05/03 02:01:21;;;;;;;8.43;5.40;;;6.80;43.70;;;;;;5056048;28;20653;-65
2023/05/03 02:03:47;;;;;;;8.87;5.40;;;6.70;42.70;;;;;;5055894;28;20603;-66
2023/05/03 02:06:12;;;;;;;9.73;5.77;;;6.70;40.20;;;;;;5055975;28;20173;-66
2023/05/03 02:08:38;;;;;;;7.23;5.20;;;6.70;40.50;;;;;;5055267;28;20695;-66
2023/05/03 02:11:04;;;;;;;7.10;5.40;;;6.70;41.80;;;;;;5055928;28;20174;-67
2023/05/03 02:13:29;;;;;;;14.43;6.00;;;6.70;42.50;;;;;;5055861;28;20303;-66
2023/05/03 02:15:55;;;;;;;8.77;5.57;;;6.70;41.70;;;;;;5055795;28;20180;-66
2023/05/03 02:18:21;;;;;;;8.03;5.47;;;6.70;40.80;;;;;;5055534;28;20622;-65
2023/05/03 02:20:46;;;;;;;10.20;5.30;;;6.60;43.20;;;;;;5055631;28;20248;-66
2023/05/03 02:23:13;;;;;;;7.87;5.70;;;6.60;43.40;;;;;;5055201;28;20264;-65
2023/05/03 02:25:39;;;;;;;10.03;5.97;;;6.60;44.70;;;;;;5055793;28;20310;-65
2023/05/03 02:28:05;;;;;;;7.60;6.13;;;6.60;47.00;;;;;;5055317;28;20197;-65
2023/05/03 02:30:32;;;;;;;5.63;5.07;;;6.60;48.50;;;;;;5055507;28;20196;-64
2023/05/03 02:32:58;;;;;;;9.80;5.93;;;6.50;50.00;;;;;;5055469;28;20185;-65
2023/05/03 02:35:25;;;;;;;9.67;5.93;;;6.50;52.80;;;;;;5037506;28;20169;-66
2023/05/03 02:37:50;;;;;;;9.63;6.07;;;6.50;55.50;;;;;;5054862;28;20165;-66
2023/05/03 02:40:16;;;;;;;7.87;5.70;;;6.50;58.20;;;;;;5055231;28;20173;-65
2023/05/03 02:42:42;;;;;;;9.77;5.90;;;6.50;59.80;;;;;;5055206;28;20214;-65
2023/05/03 02:45:08;;;;;;;8.33;5.80;;;6.40;63.50;;;;;;5053906;28;20181;-64
2023/05/03 02:47:33;;;;;;;9.17;6.43;;;6.40;65.60;;;;;;5055035;28;20209;-65
2023/05/03 02:49:59;;;;;;;12.13;6.00;;;6.30;72.30;;;;;;5054911;28;20184;-66
2023/05/03 02:52:25;;;;;;;10.73;5.73;;;6.30;74.60;;;;;;5054719;28;20173;-65
2023/05/03 02:54:50;;;;;;;11.70;6.00;;;6.30;72.90;;;;;;5054281;28;20621;-66
2023/05/03 02:57:16;;;;;;;9.53;5.83;;;6.30;73.00;;;;;;5037099;28;20210;-66
2023/05/03 02:59:41;;;;;;;14.63;6.37;;;6.30;70.50;;;;;;5054875;28;20577;-65
2023/05/03 03:02:07;;;;;;;10.23;6.07;;;6.30;66.00;;;;;;5054893;28;20180;-66
2023/05/03 03:04:32;;;;;;;12.27;5.80;;;6.30;63.60;;;;;;5054709;28;20242;-66
2023/05/03 03:06:58;;;;;;;10.23;6.17;;;6.30;62.70;;;;;;5054128;28;20261;-65
2023/05/03 03:09:24;;;;;;;8.47;5.53;;;6.30;53.60;;;;;;5054571;28;20702;-65
2023/05/03 03:11:51;;;;;;;10.00;5.90;;;6.30;49.10;;;;;;5054295;28;20195;-65
2023/05/03 03:14:17;;;;;;;8.47;5.83;;;6.30;52.00;;;;;;5054470;28;20173;-65
2023/05/03 03:16:44;;;;;;;8.27;5.60;;;6.30;51.90;;;;;;5054547;28;20173;-66
2023/05/03 03:19:10;;;;;;;7.70;5.10;;;6.30;53.20;;;;;;5053799;28;20304;-65
2023/05/03 03:21:36;;;;;;;7.53;5.40;;;6.30;52.30;;;;;;5053730;28;20216;-64
2023/05/03 03:24:02;;;;;;;7.43;5.20;;;6.30;50.90;;;;;;5054063;28;20221;-65
2023/05/03 03:26:28;;;;;;;6.67;5.17;;;6.20;51.50;;;;;;5054313;28;20249;-65
2023/05/03 03:28:54;;;;;;;9.90;5.70;;;6.20;54.10;;;;;;5054362;28;20677;-65
2023/05/03 03:31:21;;;;;;;8.00;6.03;;;6.20;56.30;;;;;;5054115;28;20176;-66
2023/05/03 03:33:48;;;;;;;7.57;6.10;;;6.10;60.60;;;;;;5053731;28;20173;-66
2023/05/03 03:36:13;;;;;;;9.93;6.07;;;6.10;62.00;;;;;;5053414;28;20222;-65
2023/05/03 03:38:40;;;;;;;11.60;6.43;;;6.00;69.10;;;;;;5053692;28;20275;-65
2023/05/03 03:41:06;;;;;;;14.27;6.97;;;6.00;76.30;;;;;;5035924;28;20199;-65
2023/05/03 03:43:31;;;;;;;13.73;7.13;;;6.00;81.90;;;;;;5053980;28;20181;-65
2023/05/03 03:45:57;;;;;;;11.93;6.43;;;5.90;86.90;;;;;;5053704;28;20172;-65
2023/05/03 03:48:23;;;;;;;9.23;6.60;;;5.80;91.10;;;;;;5052359;28;20266;-66
2023/05/03 03:50:49;;;;;;;13.73;7.20;;;5.80;93.00;;;;;;5052639;28;20169;-66
2023/05/03 03:53:15;;;;;;;14.13;7.07;;;5.90;92.90;;;;;;5053465;28;20227;-65
2023/05/03 03:55:41;;;;;;;12.07;7.10;;;5.80;92.90;;;;;;5053800;28;20730;-65
2023/05/03 03:58:06;;;;;;;14.07;6.97;;;5.80;93.90;;;;;;5053436;28;20531;-66
2023/05/03 04:00:35;;;;;;;17.20;7.90;;;5.80;95.30;;;;;;5035561;28;20532;-66
2023/05/03 04:03:01;;;;;;;12.40;7.20;;;5.80;95.60;;;;;;5053713;28;20252;-66
2023/05/03 04:05:27;;;;;;;13.27;7.37;;;5.90;95.00;;;;;;5052601;28;20260;-66
2023/05/03 04:07:52;;;;;;;14.00;6.80;;;5.80;93.30;;;;;;5053072;28;20209;-66
2023/05/03 04:10:18;;;;;;;13.73;7.10;;;5.80;93.60;;;;;;5053214;28;20234;-65
2023/05/03 04:12:43;;;;;;;16.00;7.07;;;5.80;94.60;;;;;;5053154;28;20177;-65
2023/05/03 04:15:10;;;;;;;14.50;7.30;;;5.80;95.00;;;;;;5052993;28;20513;-65
2023/05/03 04:17:36;;;;;;;15.13;6.40;;;5.70;95.70;;;;;;5053030;28;20239;-65
2023/05/03 04:20:05;;;;;;;12.13;6.70;;;5.70;97.30;;;;;;5052535;28;20516;-65
2023/05/03 04:22:31;;;;;;;11.33;6.80;;;5.70;97.10;;;;;;5034825;28;20254;-65
2023/05/03 04:24:57;;;;;;;14.70;6.80;;;5.70;97.70;;;;;;5052755;28;20177;-65
2023/05/03 04:27:25;;;;;;;17.67;7.23;;;5.60;97.80;;;;;;5052839;28;20660;-65
2023/05/03 04:29:51;;;;;;;14.73;7.00;;;5.60;98.60;;;;;;5053105;28;20176;-66
2023/05/03 04:32:22;;;;;;;17.60;7.67;;;5.80;99.30;;;;;;5052868;28;20169;-66
2023/05/03 04:34:57;;;;;;;15.77;7.33;;;5.90;95.80;;;;;;5052575;28;20157;-64
2023/05/03 04:37:23;;;;;;;18.00;7.70;;;6.20;85.60;;;;;;5052632;28;20186;-65
2023/05/03 04:39:48;;;;;;;20.90;7.60;;;6.40;72.20;;;;;;5052847;28;20169;-65
2023/05/03 04:42:14;;;;;;;15.30;7.30;;;6.70;53.10;;;;;;5052676;28;20521;-65
2023/05/03 04:44:43;;;;;;;21.03;7.37;;;7.00;37.50;;;;;;5052244;28;20215;-65
2023/05/03 04:47:09;;;;;;;13.17;7.10;;;7.20;24.60;;;;;;5052408;28;20208;-66
2023/05/03 04:49:35;;;;;;;17.67;6.87;;;7.50;12.90;;;;;;5052413;28;20162;-65
2023/05/03 04:52:01;;;;;;;17.47;6.73;;;7.80;4.10;;;;;;5052112;28;20206;-65
2023/05/03 04:54:26;;;;;;;11.83;6.77;;;8.20;1.00;;;;;;5052501;28;20183;-65
2023/05/03 04:56:53;;;;;;;12.10;6.50;;;8.40;1.00;;;;;;5051176;28;20172;-66
2023/05/03 04:59:19;;;;;;;9.90;6.23;;;8.80;1.00;;;;;;5050908;28;20277;-65
2023/05/03 05:01:44;;;;;;;10.97;5.97;;;9.00;1.00;;;;;;5052421;28;20245;-65
2023/05/03 05:04:10;;;;;;;11.10;6.07;;;9.40;1.00;;;;;;5052075;28;20189;-65
2023/05/03 05:06:36;;;;;;;9.43;5.60;;;9.50;1.00;;;;;;5052186;28;20256;-65
2023/05/03 05:09:01;;;;;;;9.47;5.60;;;9.80;1.00;;;;;;5052316;28;20204;-66
2023/05/03 05:11:27;;;;;;;8.67;5.70;;;9.90;1.00;;;;;;5051813;28;20189;-65
2023/05/03 05:13:53;;;;;;;11.60;5.77;;;10.10;1.00;;;;;;5052285;28;20675;-66
2023/05/03 05:16:19;;;;;;;15.13;5.97;;;10.90;1.00;;;;;;5052259;28;20169;-65
2023/05/03 05:18:44;;;;;;;10.97;5.73;;;10.60;1.00;;;;;;5054962;28;20684;-65
2023/05/03 05:21:11;;;;;;;13.83;5.80;;;11.30;1.00;;;;;;5056142;28;20168;-66
2023/05/03 05:23:37;;;;;;;8.23;5.40;;;11.50;33.70;;;;;;5055811;28;20239;-67
2023/05/03 05:26:03;;;;;;;6.97;5.37;;;11.40;1.00;;;;;;5056499;28;20173;-67
2023/05/03 05:28:29;;;;;;;10.27;5.83;;;11.40;1.00;;;;;;5055912;28;20224;-67
2023/05/03 05:30:55;;;;;;;7.37;5.50;;;11.60;1.00;;;;;;5055665;28;20169;-67
2023/05/03 05:33:20;;;;;;;11.33;6.03;;;12.10;59.70;;;;;;5055857;28;20173;-67
2023/05/03 05:35:47;;;;;;;8.20;5.90;;;12.50;1.00;;;;;;5055567;28;20173;-67
2023/05/03 05:38:16;;;;;;;10.27;6.20;;;12.80;1.00;;;;;;5055790;28;20170;-67
2023/05/03 05:40:42;;;;;;;7.90;5.53;;;12.60;92.10;;;;;;5055770;28;20177;-68
2023/05/03 05:43:08;;;;;;;9.37;5.70;;;12.90;1.00;;;;;;5055601;28;20180;-67
2023/05/03 05:45:34;;;;;;;6.67;6.07;;;13.50;1.00;;;;;;5055195;28;20250;-68
2023/05/03 05:48:00;;;;;;;11.77;6.20;;;13.60;1.00;;;;;;5055670;28;20205;-67
2023/05/03 05:50:26;;;;;;;8.63;6.07;;;14.30;1.00;;;;;;5054826;28;20173;-67
2023/05/03 05:52:52;;;;;;;9.13;6.77;;;14.10;1.00;;;;;;5055537;28;20192;-67
2023/05/03 05:55:17;;;;;;;7.57;6.40;;;14.20;1.00;;;;;;5054555;28;20636;-67
2023/05/03 05:57:43;;;;;;;12.03;6.40;;;13.80;1.00;;;;;;5036958;28;20199;-67
2023/05/03 06:00:13;;;;;;;9.50;6.70;;;14.60;99.90;;;;;;5055027;28;20172;-67
2023/05/03 06:02:40;;;;;;;10.97;7.00;;;14.40;16.60;;;;;;5055519;28;20177;-69
2023/05/03 06:05:07;;;;;;;8.40;6.30;;;15.10;1.00;;;;;;5054446;28;20252;-67
2023/05/03 06:07:32;;;;;;;11.60;6.20;;;15.40;99.90;;;;;;5055086;28;20197;-68
2023/05/03 06:09:58;;;;;;;10.03;7.03;;;13.90;1.00;;;;;;5054774;28;20184;-69
2023/05/03 06:12:24;;;;;;;8.50;6.20;;;13.90;99.90;;;;;;5054079;28;20173;-68
2023/05/03 06:14:50;;;;;;;8.83;6.73;;;12.90;1.00;;;;;;5054229;28;20169;-66
2023/05/03 06:17:16;;;;;;;14.97;7.27;;;12.40;1.00;;;;;;5054482;28;20180;-66
2023/05/03 06:19:41;;;;;;;10.30;6.97;;;13.00;1.00;;;;;;5055146;28;20655;-67
2023/05/03 06:22:07;;;;;;;9.90;6.60;;;12.90;99.90;;;;;;5054514;28;20221;-69
2023/05/03 06:24:33;;;;;;;8.47;6.33;;;13.50;20.40;;;;;;5054576;28;20287;-69
2023/05/03 06:26:59;;;;;;;11.43;6.40;;;14.00;1.00;;;;;;5054467;28;20537;-69
2023/05/03 06:29:25;;;;;;;12.37;6.57;;;14.10;86.00;;;;;;5052609;28;20169;-70
2023/05/03 06:31:51;;;;;;;9.27;6.80;;;14.10;99.90;;;;;;5054483;28;20170;-68
2023/05/03 06:34:20;;;;;;;11.27;7.20;;;14.20;99.90;;;;;;5054340;28;20177;-69
2023/05/03 06:36:46;;;;;;;12.27;6.90;;;14.90;1.00;;;;;;5054949;28;20247;-69
2023/05/03 06:39:12;;;;;;;9.00;6.80;;;16.10;99.90;;;;;;5054539;28;20169;-69
2023/05/03 06:41:37;;;;;;;8.73;6.73;;;16.70;1.00;;;;;;5051757;28;20543;-70
2023/05/03 06:44:03;;;;;;;12.33;6.73;;;17.00;1.00;;;;;;5035529;28;20582;-70
2023/05/03 06:46:29;;;;;;;8.90;7.07;;;17.20;1.00;;;;;;5054175;28;20224;-70
2023/05/03 06:48:56;;;;;;;11.95;7.20;;;17.80;1.00;;;;;;5053940;28;20185;-70
2023/05/03 06:51:26;;;;;;;8.00;6.65;;;16.90;1.00;;;;;;5054472;28;20250;-70
2023/05/03 06:53:56;;;;;;;9.45;6.85;;;17.40;1.00;;;;;;5036088;28;20538;-69
2023/05/03 06:56:22;;;;;;;10.63;7.00;;;17.10;1.00;;;;;;5053764;28;20593;-69
2023/05/03 06:58:48;;;;;;;10.88;7.10;;;16.20;1.00;;;;;;5053843;28;20248;-69
2023/05/03 07:01:14;;;;;;;10.07;7.20;;;16.00;1.00;;;;;;5054198;28;20176;-70
2023/05/03 07:03:40;;;;;;;10.52;7.30;;;15.90;1.00;;;;;;5053332;28;20527;-70
2023/05/03 07:06:06;;;;;;;10.77;7.72;;;16.60;1.00;;;;;;5036369;28;20173;-70
2023/05/03 07:08:31;;;;;;;9.50;7.57;;;17.00;1.00;;;;;;5052797;28;20504;-69
2023/05/03 07:10:57;;;;;;;12.07;8.00;;;17.30;1.00;;;;;;5053283;28;20180;-71
2023/05/03 07:13:23;;;;;;;12.30;7.95;;;17.80;1.00;;;;;;5051916;28;20517;-69
2023/05/03 07:15:49;;;;;;;8.27;7.18;;;18.40;1.00;;;;;;5035988;28;20174;-70
2023/05/03 07:18:15;;;;;;;10.32;7.93;;;18.40;1.00;;;;;;5053328;28;20295;-70
2023/05/03 07:20:40;;;;;;;12.70;8.27;;;17.50;1.00;;;;;;5052584;28;20173;-70
2023/05/03 07:23:06;;;;;;;11.88;8.48;;;17.50;1.00;;;;;;5034813;28;20193;-71
2023/05/03 07:25:32;;;;;;;9.43;8.43;;;18.10;1.00;;;;;;5033350;28;20173;-71
2023/05/03 07:27:58;;;;;;;11.55;8.52;;;16.50;1.00;;;;;;5052847;28;20256;-71
2023/05/03 07:30:23;;;;;;;10.20;8.13;;;16.30;1.00;;;;;;5053611;28;20162;-74
2023/05/03 07:32:49;;;;;;;12.38;8.60;;;17.30;1.00;;;;;;5053050;28;20261;-70
2023/05/03 07:35:15;;;;;;;12.65;8.27;;;16.50;1.00;;;;;;5053045;28;20189;-70
2023/05/03 07:37:42;;;;;;;8.93;7.88;;;17.20;1.00;;;;;;5052429;28;20173;-70
2023/05/03 07:40:08;;;;;;;11.10;8.55;;;17.30;1.00;;;;;;5068806;28;20711;-71
2023/05/03 07:42:34;;;;;;;13.15;9.10;;;17.20;1.00;;;;;;5072373;28;20259;-72
2023/05/03 07:45:00;;;;;;;10.80;8.45;;;16.30;1.00;;;;;;5073581;28;20187;-71
2023/05/03 07:47:26;;;;;;;12.02;8.88;;;16.60;1.00;;;;;;5072645;28;20731;-72
2023/05/03 07:49:52;;;;;;;13.05;8.95;;;17.40;1.00;;;;;;5072907;28;20204;-70
2023/05/03 07:52:18;;;;;;;11.35;8.85;;;17.60;1.00;;;;;;5073009;28;20556;-70
2023/05/03 07:54:47;;;;;;;16.80;9.05;;;18.30;1.00;;;;;;5073075;28;20161;-72
2023/05/03 07:57:16;;;;;;;11.93;9.23;;;19.70;99.90;;;;;;5072834;28;20165;-71
2023/05/03 07:59:42;;;;;;;11.43;9.07;;;18.90;99.90;;;;;;5072926;28;20221;-70
2023/05/03 08:02:08;;;;;;;10.00;9.00;;;18.90;99.90;;;;;;5054397;28;20175;-70
2023/05/03 08:04:34;;;;;;;14.15;9.85;;;19.70;99.90;;;;;;5072451;28;20169;-70
2023/05/03 08:07:03;;;;;;;11.07;8.98;;;20.20;99.90;;;;;;5072446;28;20516;-70
2023/05/03 08:09:29;;;;;;;11.07;9.13;;;20.60;99.90;;;;;;5073149;28;20180;-70
2023/05/03 08:11:55;;;;;;;13.77;10.52;;;18.90;99.90;;;;;;5072114;28;20271;-70
2023/05/03 08:14:22;;;;;;;12.98;10.48;;;18.50;99.90;;;;;;5072359;28;20164;-71
2023/05/03 08:16:47;;;;;;;14.32;9.75;;;19.00;99.90;;;;;;5072619;28;20168;-69
2023/05/03 08:19:13;;;;;;;12.05;9.85;;;18.90;99.90;;;;;;5072643;28;20269;-70
2023/05/03 08:21:39;;;;;;;12.35;9.98;;;18.60;99.90;;;;;;5072632;28;20181;-70
2023/05/03 08:24:05;;;;;;;13.73;10.45;;;19.40;99.90;;;;;;5072156;28;20663;-71
2023/05/03 08:26:31;;;;;;;11.68;10.07;;;19.10;99.90;;;;;;5072540;28;20176;-70
2023/05/03 08:28:57;;;;;;;12.30;9.32;;;19.10;99.90;;;;;;5072155;28;20302;-70
2023/05/03 08:31:23;;;;;;;13.43;10.23;;;19.30;99.90;;;;;;5054670;28;20688;-70
2023/05/03 08:33:49;;;;;;;17.73;10.40;;;19.20;99.90;;;;;;5072045;28;20634;-70
2023/05/03 08:36:15;;;;;;;15.90;10.25;;;19.30;99.90;;;;;;5072598;28;20173;-69
2023/05/03 08:38:40;;;;;;;13.32;10.18;;;19.20;99.90;;;;;;5072227;28;20228;-72
2023/05/03 08:41:30;;;;;;;13.77;9.88;;;19.60;99.90;;;;;;5072495;28;20203;-70
2023/05/03 08:43:57;;;;;;;15.30;10.57;;;19.20;99.90;;;;;;5072410;28;20165;-69
2023/05/03 08:46:24;;;;;;;15.57;10.30;;;18.90;99.90;;;;;;5072706;28;20172;-69
2023/05/03 08:48:51;;;;;;;13.73;10.18;;;19.00;99.90;;;;;;5072204;28;20571;-70
2023/05/03 08:51:20;;;;;;;17.02;10.70;;;18.70;99.90;;;;;;5072264;28;20177;-69
2023/05/03 08:53:46;;;;;;;11.43;10.32;;;19.60;99.90;;;;;;5071863;28;20168;-70
2023/05/03 08:56:18;;;;;;;11.98;10.45;;;20.50;99.90;;;;;;5071919;28;20171;-71
2023/05/03 08:58:44;;;;;;;15.00;10.98;;;19.60;99.90;;;;;;5071924;28;20164;-71
2023/05/03 09:01:10;;;;;;;13.10;10.70;;;19.30;99.90;;;;;;5071975;28;20173;-70
2023/05/03 09:03:36;;;;;;;14.85;10.27;;;18.20;99.90;;;;;;5072362;28;20171;-70
2023/05/03 09:06:02;;;;;;;13.90;10.10;;;18.50;99.90;;;;;;5072720;28;20173;-70
2023/05/03 09:08:29;;;;;;;15.02;10.60;;;19.40;99.90;;;;;;5071504;28;20254;-70
2023/05/03 09:10:56;;;;;;;16.08;10.35;;;19.30;99.90;;;;;;5070601;28;20170;-70
2023/05/03 09:13:28;;;;;;;12.48;10.73;;;20.60;99.90;;;;;;5072238;28;20173;-71
2023/05/03 09:15:55;;;;;;;12.45;10.02;;;20.20;99.90;;;;;;5071989;28;20298;-70
2023/05/03 09:18:22;;;;;;;14.25;10.82;;;20.80;99.90;;;;;;5072023;28;20230;-70
2023/05/03 09:20:52;;;;;;;13.10;10.50;;;20.10;99.90;;;;;;5071342;28;20203;-70
2023/05/03 09:23:25;;;;;;;12.07;10.57;;;20.70;99.90;;;;;;5071654;28;20647;-71
2023/05/03 09:25:50;;;;;;;14.48;11.18;;;21.20;99.90;;;;;;5071153;28;20165;-70
2023/05/03 09:28:18;;;;;;;13.48;10.98;;;21.20;99.90;;;;;;5071640;28;20212;-69
2023/05/03 09:30:45;;;;;;;14.00;10.43;;;19.50;99.90;;;;;;5071493;28;20574;-71
2023/05/03 09:33:11;;;;;;;13.18;11.15;;;19.10;99.90;;;;;;5072438;28;20184;-71
2023/05/03 09:35:38;;;;;;;11.13;9.93;;;19.50;99.90;;;;;;5073138;28;20168;-70
2023/05/03 09:38:04;;;;;;;13.65;10.20;;;18.50;99.90;;;;;;5070902;28;20385;-69
2023/05/03 09:40:30;;;;;;;11.55;10.35;;;18.90;99.90;;;;;;5071872;28;20267;-70
2023/05/03 09:43:10;;;;;;;16.25;10.15;;;19.10;99.90;;;;;;5071800;28;20243;-70
2023/05/03 09:45:39;;;;;;;20.40;11.02;;;18.80;99.90;;;;;;5072018;28;20172;-68
2023/05/03 09:48:06;;;;;;;12.90;10.00;;;18.90;99.90;;;;;;5070873;28;20397;-70
2023/05/03 09:50:33;;;;;;;12.00;9.95;;;17.70;99.90;;;;;;5071409;28;20663;-70
2023/05/03 09:53:02;;;;;;;14.20;10.40;;;18.50;99.90;;;;;;5053115;28;20184;-70
2023/05/03 09:55:31;;;;;;;14.52;10.40;;;20.20;99.90;;;;;;5071588;28;20175;-70
2023/05/03 09:57:58;;;;;;;12.88;10.88;;;20.50;99.90;;;;;;5070748;28;20419;-70
2023/05/03 10:00:24;;;;;;;14.15;10.30;;;21.20;99.90;;;;;;5070847;28;20190;-72
2023/05/03 10:02:53;;;;;;;10.95;9.35;;;19.50;99.90;;;;;;5072023;28;20666;-69
2023/05/03 10:05:23;;;;;;;13.38;10.30;;;19.20;99.90;;;;;;5075313;28;20176;-71
2023/05/03 10:07:51;;;;;;;16.10;10.23;;;18.60;99.90;;;;;;5074813;28;20692;-71
2023/05/03 10:10:17;;;;;;;14.85;10.20;;;17.70;99.90;;;;;;5074830;28;20172;-70
2023/05/03 10:12:45;;;;;;;12.75;10.02;;;18.20;99.90;;;;;;5074723;28;20270;-69
2023/05/03 10:15:15;;;;;;;14.35;11.20;;;18.20;99.90;;;;;;5057335;28;20171;-70
2023/05/03 10:17:42;;;;;;;14.30;10.05;;;17.50;99.90;;;;;;5074526;28;20243;-70
2023/05/03 10:20:32;;;;;;;12.38;10.18;;;17.80;99.90;;;;;;5075182;28;20164;-69
2023/05/03 10:23:04;;;;;;;15.38;10.50;;;17.70;99.90;;;;;;5074669;28;20184;-69
2023/05/03 10:25:31;;;;;;;15.73;10.23;;;17.80;99.90;;;;;;5074864;28;20223;-69
2023/05/03 10:28:07;;;;;;;16.25;11.35;;;17.30;99.90;;;;;;5074642;28;20295;-68
2023/05/03 10:30:34;;;;;;;15.68;11.13;;;17.40;99.90;;;;;;5056629;28;20666;-69
2023/05/03 10:33:11;;;;;;;12.35;9.90;;;18.20;99.90;;;;;;5056510;28;20180;-69
2023/05/03 10:35:51;;;;;;;13.52;9.57;;;18.00;99.90;;;;;;5074146;28;20165;-69
2023/05/03 10:38:24;;;;;;;16.88;10.55;;;17.40;99.90;;;;;;5074484;28;20168;-68
2023/05/03 10:40:51;;;;;;;22.45;11.57;;;17.50;99.90;;;;;;5073712;28;20689;-69
2023/05/03 10:43:40;;;;;;;12.45;10.57;;;18.30;99.90;;;;;;5056912;28;20180;-70
2023/05/03 10:46:10;;;;;;;19.90;13.13;;;19.20;99.90;;;;;;5059471;28;20176;-69
2023/05/03 10:48:36;;;;;;;12.88;11.00;;;20.40;99.90;;;;;;5074504;28;20216;-71
2023/05/03 10:51:35;;;;;;;19.63;11.73;;;19.90;99.90;;;;;;5073952;28;20251;-69
2023/05/03 10:54:01;;;;;;;15.25;10.98;;;19.60;99.90;;;;;;5072952;28;20620;-70
2023/05/03 10:56:26;;;;;;;14.75;12.43;;;19.50;99.90;;;;;;5074496;28;20179;-69
2023/05/03 10:58:55;;;;;;;15.45;11.98;;;19.90;99.90;;;;;;5074124;28;20169;-70
2023/05/03 11:01:23;;;;;;;15.23;11.30;;;19.00;99.90;;;;;;5055947;28;20189;-71
2023/05/03 11:04:21;;;;;;;13.20;11.15;;;18.10;99.90;;;;;;5074296;28;20172;-69
2023/05/03 11:06:50;;;;;;;15.90;11.40;;;18.10;99.90;;;;;;5073402;28;20644;-68
2023/05/03 11:09:16;;;;;;;16.98;11.30;;;18.40;99.90;;;;;;5074286;28;20208;-71
2023/05/03 11:11:42;;;;;;;14.45;11.35;;;18.60;99.90;;;;;;5073561;28;20615;-70
2023/05/03 11:14:09;;;;;;;13.98;11.10;;;18.00;99.90;;;;;;5073158;28;20271;-70
2023/05/03 11:16:35;;;;;;;16.75;11.25;;;18.00;99.90;;;;;;5073594;28;20168;-69
2023/05/03 11:19:02;;;;;;;15.48;12.32;;;17.80;99.90;;;;;;5073027;28;20251;-70
2023/05/03 11:21:28;;;;;;;13.27;11.85;;;17.40;99.90;;;;;;5055602;28;20176;-71
2023/05/03 11:23:53;;;;;;;15.23;11.85;;;17.70;99.90;;;;;;5055683;28;20242;-69
2023/05/03 11:26:24;;;;;;;16.95;12.43;;;17.20;99.90;;;;;;5073637;28;20173;-69
2023/05/03 11:28:50;;;;;;;16.70;10.93;;;17.70;99.90;;;;;;5073940;28;20318;-69
2023/05/03 11:31:16;;;;;;;15.77;11.00;;;17.70;99.90;;;;;;5072662;28;20168;-68
2023/05/03 11:33:42;;;;;;;15.85;11.20;;;17.80;99.90;;;;;;5073075;28;20176;-71
2023/05/03 11:36:08;;;;;;;13.98;11.25;;;18.20;99.90;;;;;;5055059;28;20733;-70
2023/05/03 11:38:38;;;;;;;13.25;11.82;;;18.60;99.90;;;;;;5073321;28;20249;-70
2023/05/03 11:41:17;;;;;;;16.40;11.60;;;18.20;99.90;;;;;;5055343;28;20215;-70
2023/05/03 11:43:44;;;;;;;18.58;11.40;;;18.40;99.90;;;;;;5073257;28;20172;-69
2023/05/03 11:46:12;;;;;;;15.35;11.70;;;18.50;99.90;;;;;;5073161;28;20234;-67
2023/05/03 11:48:38;;;;;;;14.68;11.90;;;18.50;99.90;;;;;;5066682;28;20212;-68
2023/05/03 11:51:10;;;;;;;13.68;11.73;;;17.70;99.90;;;;;;5072066;28;20169;-69
2023/05/03 11:53:38;;;;;;;17.92;12.23;;;17.50;99.90;;;;;;5072710;28;20230;-68
2023/05/03 11:56:19;;;;;;;14.95;11.18;;;17.50;99.90;;;;;;5072731;28;20271;-69
2023/05/03 11:59:03;;;;;;;16.80;11.43;;;17.20;99.90;;;;;;5052353;28;20177;-68
2023/05/03 12:01:29;;;;;;;14.90;11.33;;;16.60;99.90;;;;;;5063073;28;20215;-68
2023/05/03 12:04:02;;;;;;;16.60;10.82;;;16.30;99.90;;;;;;5072490;28;20180;-68
2023/05/03 12:06:31;;;;;;;12.88;10.02;;;16.80;99.90;;;;;;5069840;28;20175;-69
2023/05/03 12:08:57;;;;;;;13.50;11.35;;;16.70;99.90;;;;;;5058186;28;20226;-68
2023/05/03 12:11:23;;;;;;;19.50;12.90;;;17.00;99.90;;;;;;5071688;28;20624;-68
2023/05/03 12:13:57;;;;;;;17.17;12.70;;;16.80;99.90;;;;;;5072413;28;20199;-69
2023/05/03 12:16:23;;;;;;;19.75;11.88;;;17.10;99.90;;;;;;5072315;28;20179;-70
2023/05/03 12:18:54;;;;;;;12.17;10.10;;;17.00;99.90;;;;;;5071716;28;20242;-68
2023/05/03 12:21:20;;;;;;;19.30;13.63;;;16.70;99.90;;;;;;5071939;28;20283;-70
2023/05/03 12:23:48;;;;;;;13.73;10.73;;;16.70;99.90;;;;;;5072137;28;20675;-68
2023/05/03 12:26:20;;;;;;;11.07;9.40;;;16.40;99.90;;;;;;5071362;28;20180;-69
2023/05/03 12:28:47;;;;;;;17.30;9.63;;;16.40;99.90;;;;;;5072033;28;20215;-70
2023/05/03 12:31:13;;;;;;;13.07;10.17;;;16.60;99.90;;;;;;5072224;28;20164;-70
2023/05/03 12:33:39;;;;;;;13.57;9.83;;;16.80;99.90;;;;;;5071662;28;20279;-69
2023/05/03 12:36:06;;;;;;;15.30;10.67;;;17.00;99.90;;;;;;5071947;28;20169;-69
2023/05/03 12:38:32;;;;;;;13.87;11.80;;;16.60;99.90;;;;;;5072018;28;20168;-68
2023/05/03 12:40:58;;;;;;;12.67;11.17;;;16.40;99.90;;;;;;5071894;28;20619;-68
2023/05/03 12:43:24;;;;;;;14.73;10.03;;;16.60;99.90;;;;;;5072470;28;20172;-67
2023/05/03 12:45:50;;;;;;;13.40;9.47;;;16.70;99.90;;;;;;5071617;28;20281;-70